sensor_id;sensor_type;location;lat;lon;timestamp;P1;durP1;ratioP1;P2;durP2;ratioP2
36923;SDS011;22841;50.252;18.688;2022-12-29T00:01:31;30.52;;;12.02;;
36923;SDS011;22841;50.252;18.688;2022-12-29T00:03:58;28.10;;;11.07;;
36923;SDS011;22841;50.252;18.688;2022-12-29T00:06:24;26.70;;;12.23;;
36923;SDS011;22841;50.252;18.688;2022-12-29T00:08:51;36.47;;;13.35;;
36923;SDS011;22841;50.252;18.688;2022-12-29T00:11:18;31.20;;;12.10;;
36923;SDS011;22841;50.252;18.688;2022-12-29T00:13:54;31.60;;;12.95;;
36923;SDS011;22841;50.252;18.688;2022-12-29T00:16:40;30.00;;;12.68;;
36923;SDS011;22841;50.252;18.688;2022-12-29T00:19:08;29.90;;;12.35;;
36923;SDS011;22841;50.252;18.688;2022-12-29T00:21:54;31.90;;;12.02;;
36923;SDS011;22841;50.252;18.688;2022-12-29T00:24:39;27.45;;;11.52;;
36923;SDS011;22841;50.252;18.688;2022-12-29T00:27:20;28.60;;;13.82;;
36923;SDS011;22841;50.252;18.688;2022-12-29T00:30:11;34.00;;;14.02;;
36923;SDS011;22841;50.252;18.688;2022-12-29T00:32:59;36.17;;;15.52;;
36923;SDS011;22841;50.252;18.688;2022-12-29T00:35:45;38.92;;;14.38;;
36923;SDS011;22841;50.252;18.688;2022-12-29T00:38:17;28.98;;;12.65;;
36923;SDS011;22841;50.252;18.688;2022-12-29T00:41:02;28.50;;;11.68;;
36923;SDS011;22841;50.252;18.688;2022-12-29T00:43:47;32.88;;;12.38;;
36923;SDS011;22841;50.252;18.688;2022-12-29T00:46:34;25.52;;;11.43;;
36923;SDS011;22841;50.252;18.688;2022-12-29T00:49:02;32.28;;;13.13;;
36923;SDS011;22841;50.252;18.688;2022-12-29T00:51:47;31.27;;;12.35;;
36923;SDS011;22841;50.252;18.688;2022-12-29T00:54:14;35.47;;;14.55;;
36923;SDS011;22841;50.252;18.688;2022-12-29T00:56:40;29.23;;;12.98;;
36923;SDS011;22841;50.252;18.688;2022-12-29T00:59:07;33.67;;;14.20;;
36923;SDS011;22841;50.252;18.688;2022-12-29T01:01:36;32.75;;;15.45;;
36923;SDS011;22841;50.252;18.688;2022-12-29T01:04:03;46.95;;;17.88;;
36923;SDS011;22841;50.252;18.688;2022-12-29T01:06:30;48.35;;;19.00;;
36923;SDS011;22841;50.252;18.688;2022-12-29T01:08:56;50.05;;;20.25;;
36923;SDS011;22841;50.252;18.688;2022-12-29T01:11:41;56.08;;;21.02;;
36923;SDS011;22841;50.252;18.688;2022-12-29T01:14:07;56.33;;;24.35;;
36923;SDS011;22841;50.252;18.688;2022-12-29T01:16:33;56.67;;;21.67;;
36923;SDS011;22841;50.252;18.688;2022-12-29T01:19:01;48.10;;;18.10;;
36923;SDS011;22841;50.252;18.688;2022-12-29T01:21:28;48.83;;;18.35;;
36923;SDS011;22841;50.252;18.688;2022-12-29T01:23:55;38.17;;;15.63;;
36923;SDS011;22841;50.252;18.688;2022-12-29T01:26:21;21.25;;;9.68;;
36923;SDS011;22841;50.252;18.688;2022-12-29T01:28:47;15.02;;;6.95;;
36923;SDS011;22841;50.252;18.688;2022-12-29T01:31:14;17.38;;;6.93;;
36923;SDS011;22841;50.252;18.688;2022-12-29T01:33:41;22.58;;;8.48;;
36923;SDS011;22841;50.252;18.688;2022-12-29T01:36:09;16.08;;;7.10;;
36923;SDS011;22841;50.252;18.688;2022-12-29T01:38:37;15.68;;;7.80;;
36923;SDS011;22841;50.252;18.688;2022-12-29T01:41:05;19.42;;;8.52;;
36923;SDS011;22841;50.252;18.688;2022-12-29T01:51:25;14.50;;;6.70;;
36923;SDS011;22841;50.252;18.688;2022-12-29T01:53:53;13.70;;;5.45;;
36923;SDS011;22841;50.252;18.688;2022-12-29T01:56:22;13.00;;;5.60;;
36923;SDS011;22841;50.252;18.688;2022-12-29T01:58:48;15.13;;;7.13;;
36923;SDS011;22841;50.252;18.688;2022-12-29T02:01:19;11.75;;;6.30;;
36923;SDS011;22841;50.252;18.688;2022-12-29T02:03:47;15.80;;;6.35;;
36923;SDS011;22841;50.252;18.688;2022-12-29T02:06:16;15.35;;;6.25;;
36923;SDS011;22841;50.252;18.688;2022-12-29T02:11:12;11.55;;;5.68;;
36923;SDS011;22841;50.252;18.688;2022-12-29T02:13:39;10.25;;;5.53;;
36923;SDS011;22841;50.252;18.688;2022-12-29T02:16:13;13.88;;;6.38;;
36923;SDS011;22841;50.252;18.688;2022-12-29T02:21:48;8.18;;;4.93;;
36923;SDS011;22841;50.252;18.688;2022-12-29T02:30:03;9.40;;;4.75;;
36923;SDS011;22841;50.252;18.688;2022-12-29T02:52:00;10.52;;;4.82;;
36923;SDS011;22841;50.252;18.688;2022-12-29T02:54:30;11.50;;;5.20;;
36923;SDS011;22841;50.252;18.688;2022-12-29T02:59:49;9.83;;;4.43;;
36923;SDS011;22841;50.252;18.688;2022-12-29T03:02:30;13.50;;;4.78;;
36923;SDS011;22841;50.252;18.688;2022-12-29T03:07:52;11.13;;;5.22;;
36923;SDS011;22841;50.252;18.688;2022-12-29T03:14:08;13.00;;;5.53;;
36923;SDS011;22841;50.252;18.688;2022-12-29T03:18:01;9.60;;;4.43;;
36923;SDS011;22841;50.252;18.688;2022-12-29T03:20:15;12.15;;;5.13;;
36923;SDS011;22841;50.252;18.688;2022-12-29T03:22:49;10.63;;;4.60;;
36923;SDS011;22841;50.252;18.688;2022-12-29T03:27:51;9.88;;;4.90;;
36923;SDS011;22841;50.252;18.688;2022-12-29T03:30:21;6.97;;;4.30;;
36923;SDS011;22841;50.252;18.688;2022-12-29T03:32:49;12.30;;;6.30;;
36923;SDS011;22841;50.252;18.688;2022-12-29T03:35:20;13.18;;;5.32;;
36923;SDS011;22841;50.252;18.688;2022-12-29T03:37:55;11.05;;;5.85;;
36923;SDS011;22841;50.252;18.688;2022-12-29T03:40:25;7.47;;;4.63;;
36923;SDS011;22841;50.252;18.688;2022-12-29T03:42:54;18.05;;;5.90;;
36923;SDS011;22841;50.252;18.688;2022-12-29T03:45:21;9.18;;;5.55;;
36923;SDS011;22841;50.252;18.688;2022-12-29T03:47:47;17.65;;;6.40;;
36923;SDS011;22841;50.252;18.688;2022-12-29T03:50:13;13.32;;;5.80;;
36923;SDS011;22841;50.252;18.688;2022-12-29T03:52:39;18.88;;;7.10;;
36923;SDS011;22841;50.252;18.688;2022-12-29T03:55:06;13.00;;;7.32;;
36923;SDS011;22841;50.252;18.688;2022-12-29T03:57:32;16.80;;;7.05;;
36923;SDS011;22841;50.252;18.688;2022-12-29T03:59:58;17.15;;;6.32;;
36923;SDS011;22841;50.252;18.688;2022-12-29T04:02:24;14.43;;;7.43;;
36923;SDS011;22841;50.252;18.688;2022-12-29T04:04:50;16.08;;;7.70;;
36923;SDS011;22841;50.252;18.688;2022-12-29T04:07:16;12.73;;;6.35;;
36923;SDS011;22841;50.252;18.688;2022-12-29T04:09:42;14.95;;;6.13;;
36923;SDS011;22841;50.252;18.688;2022-12-29T04:12:08;10.40;;;5.80;;
36923;SDS011;22841;50.252;18.688;2022-12-29T04:14:35;14.13;;;5.78;;
36923;SDS011;22841;50.252;18.688;2022-12-29T04:17:01;9.65;;;6.25;;
36923;SDS011;22841;50.252;18.688;2022-12-29T04:19:27;9.30;;;5.63;;
36923;SDS011;22841;50.252;18.688;2022-12-29T04:21:53;17.45;;;6.53;;
36923;SDS011;22841;50.252;18.688;2022-12-29T04:24:19;10.77;;;5.60;;
36923;SDS011;22841;50.252;18.688;2022-12-29T04:26:45;9.43;;;5.55;;
36923;SDS011;22841;50.252;18.688;2022-12-29T04:29:11;10.98;;;5.55;;
36923;SDS011;22841;50.252;18.688;2022-12-29T04:31:37;10.82;;;4.93;;
36923;SDS011;22841;50.252;18.688;2022-12-29T04:34:03;13.35;;;6.45;;
36923;SDS011;22841;50.252;18.688;2022-12-29T04:36:29;10.95;;;6.38;;
36923;SDS011;22841;50.252;18.688;2022-12-29T04:38:55;10.60;;;5.53;;
36923;SDS011;22841;50.252;18.688;2022-12-29T04:41:21;14.20;;;7.13;;
36923;SDS011;22841;50.252;18.688;2022-12-29T04:43:47;13.25;;;5.70;;
36923;SDS011;22841;50.252;18.688;2022-12-29T04:46:13;11.75;;;6.78;;
36923;SDS011;22841;50.252;18.688;2022-12-29T04:48:40;10.95;;;6.22;;
36923;SDS011;22841;50.252;18.688;2022-12-29T04:51:06;11.88;;;6.07;;
36923;SDS011;22841;50.252;18.688;2022-12-29T04:53:32;10.15;;;6.18;;
36923;SDS011;22841;50.252;18.688;2022-12-29T04:55:58;17.30;;;6.43;;
36923;SDS011;22841;50.252;18.688;2022-12-29T04:58:24;12.27;;;6.30;;
36923;SDS011;22841;50.252;18.688;2022-12-29T05:00:50;15.38;;;7.10;;
36923;SDS011;22841;50.252;18.688;2022-12-29T05:03:17;13.77;;;6.78;;
36923;SDS011;22841;50.252;18.688;2022-12-29T05:05:43;14.05;;;7.47;;
36923;SDS011;22841;50.252;18.688;2022-12-29T05:08:09;10.93;;;6.93;;
36923;SDS011;22841;50.252;18.688;2022-12-29T05:10:35;13.02;;;6.53;;
36923;SDS011;22841;50.252;18.688;2022-12-29T05:13:01;14.27;;;7.03;;
36923;SDS011;22841;50.252;18.688;2022-12-29T05:15:28;13.73;;;7.72;;
36923;SDS011;22841;50.252;18.688;2022-12-29T05:17:54;16.10;;;7.05;;
36923;SDS011;22841;50.252;18.688;2022-12-29T05:20:20;15.00;;;6.90;;
36923;SDS011;22841;50.252;18.688;2022-12-29T05:22:46;17.90;;;6.85;;
36923;SDS011;22841;50.252;18.688;2022-12-29T05:25:12;13.32;;;6.55;;
36923;SDS011;22841;50.252;18.688;2022-12-29T05:27:38;17.77;;;7.32;;
36923;SDS011;22841;50.252;18.688;2022-12-29T05:30:04;13.55;;;7.22;;
36923;SDS011;22841;50.252;18.688;2022-12-29T05:32:31;16.27;;;8.20;;
36923;SDS011;22841;50.252;18.688;2022-12-29T05:34:57;15.25;;;7.65;;
36923;SDS011;22841;50.252;18.688;2022-12-29T05:37:23;18.60;;;8.40;;
36923;SDS011;22841;50.252;18.688;2022-12-29T05:39:49;19.55;;;7.53;;
36923;SDS011;22841;50.252;18.688;2022-12-29T05:42:15;16.55;;;8.18;;
36923;SDS011;22841;50.252;18.688;2022-12-29T05:44:41;17.58;;;7.78;;
36923;SDS011;22841;50.252;18.688;2022-12-29T05:47:07;13.98;;;7.60;;
36923;SDS011;22841;50.252;18.688;2022-12-29T05:49:33;16.30;;;8.55;;
36923;SDS011;22841;50.252;18.688;2022-12-29T05:51:59;19.05;;;8.95;;
36923;SDS011;22841;50.252;18.688;2022-12-29T05:54:25;17.75;;;8.52;;
36923;SDS011;22841;50.252;18.688;2022-12-29T05:56:51;22.13;;;9.18;;
36923;SDS011;22841;50.252;18.688;2022-12-29T05:59:17;22.48;;;9.13;;
36923;SDS011;22841;50.252;18.688;2022-12-29T06:01:43;33.00;;;10.68;;
36923;SDS011;22841;50.252;18.688;2022-12-29T06:04:10;20.15;;;8.90;;
36923;SDS011;22841;50.252;18.688;2022-12-29T06:06:36;24.00;;;9.85;;
36923;SDS011;22841;50.252;18.688;2022-12-29T06:09:02;20.50;;;10.23;;
36923;SDS011;22841;50.252;18.688;2022-12-29T06:11:28;23.10;;;9.77;;
36923;SDS011;22841;50.252;18.688;2022-12-29T06:13:54;20.88;;;9.52;;
36923;SDS011;22841;50.252;18.688;2022-12-29T06:16:20;27.08;;;10.75;;
36923;SDS011;22841;50.252;18.688;2022-12-29T06:18:46;24.30;;;11.25;;
36923;SDS011;22841;50.252;18.688;2022-12-29T06:21:12;27.45;;;9.55;;
36923;SDS011;22841;50.252;18.688;2022-12-29T06:23:38;26.63;;;9.90;;
36923;SDS011;22841;50.252;18.688;2022-12-29T06:26:04;20.23;;;9.32;;
36923;SDS011;22841;50.252;18.688;2022-12-29T06:28:30;25.58;;;9.07;;
36923;SDS011;22841;50.252;18.688;2022-12-29T06:30:57;27.45;;;10.13;;
36923;SDS011;22841;50.252;18.688;2022-12-29T06:33:23;24.92;;;10.52;;
36923;SDS011;22841;50.252;18.688;2022-12-29T06:35:49;24.80;;;9.63;;
36923;SDS011;22841;50.252;18.688;2022-12-29T06:38:16;24.40;;;9.25;;
36923;SDS011;22841;50.252;18.688;2022-12-29T06:40:42;21.02;;;8.70;;
36923;SDS011;22841;50.252;18.688;2022-12-29T06:43:10;17.75;;;8.27;;
36923;SDS011;22841;50.252;18.688;2022-12-29T06:45:37;17.13;;;7.50;;
36923;SDS011;22841;50.252;18.688;2022-12-29T06:48:05;19.17;;;7.32;;
36923;SDS011;22841;50.252;18.688;2022-12-29T06:50:31;21.90;;;7.15;;
36923;SDS011;22841;50.252;18.688;2022-12-29T06:52:57;20.08;;;7.85;;
36923;SDS011;22841;50.252;18.688;2022-12-29T06:55:23;19.23;;;7.88;;
36923;SDS011;22841;50.252;18.688;2022-12-29T06:57:49;17.77;;;7.22;;
36923;SDS011;22841;50.252;18.688;2022-12-29T07:00:16;12.40;;;6.82;;
36923;SDS011;22841;50.252;18.688;2022-12-29T07:02:42;15.35;;;7.53;;
36923;SDS011;22841;50.252;18.688;2022-12-29T07:05:08;14.65;;;7.47;;
36923;SDS011;22841;50.252;18.688;2022-12-29T07:07:35;17.73;;;7.32;;
36923;SDS011;22841;50.252;18.688;2022-12-29T07:10:01;12.52;;;6.60;;
36923;SDS011;22841;50.252;18.688;2022-12-29T07:12:28;16.23;;;7.45;;
36923;SDS011;22841;50.252;18.688;2022-12-29T07:14:54;17.75;;;7.72;;
36923;SDS011;22841;50.252;18.688;2022-12-29T07:17:20;21.42;;;7.25;;
36923;SDS011;22841;50.252;18.688;2022-12-29T07:19:46;15.57;;;6.95;;
36923;SDS011;22841;50.252;18.688;2022-12-29T07:22:12;14.85;;;7.65;;
36923;SDS011;22841;50.252;18.688;2022-12-29T07:24:38;16.95;;;8.27;;
36923;SDS011;22841;50.252;18.688;2022-12-29T07:27:05;17.17;;;8.63;;
36923;SDS011;22841;50.252;18.688;2022-12-29T07:29:31;17.30;;;7.65;;
36923;SDS011;22841;50.252;18.688;2022-12-29T07:31:57;19.23;;;8.70;;
36923;SDS011;22841;50.252;18.688;2022-12-29T07:34:23;13.95;;;7.30;;
36923;SDS011;22841;50.252;18.688;2022-12-29T07:36:49;14.38;;;7.15;;
36923;SDS011;22841;50.252;18.688;2022-12-29T07:39:15;19.48;;;8.60;;
36923;SDS011;22841;50.252;18.688;2022-12-29T07:41:41;16.08;;;8.65;;
36923;SDS011;22841;50.252;18.688;2022-12-29T07:44:08;18.75;;;9.05;;
36923;SDS011;22841;50.252;18.688;2022-12-29T07:46:34;18.02;;;8.18;;
36923;SDS011;22841;50.252;18.688;2022-12-29T07:49:00;20.67;;;9.40;;
36923;SDS011;22841;50.252;18.688;2022-12-29T07:51:26;21.98;;;9.43;;
36923;SDS011;22841;50.252;18.688;2022-12-29T07:53:52;25.65;;;9.98;;
36923;SDS011;22841;50.252;18.688;2022-12-29T07:56:18;23.15;;;9.88;;
36923;SDS011;22841;50.252;18.688;2022-12-29T07:58:44;29.17;;;10.38;;
36923;SDS011;22841;50.252;18.688;2022-12-29T08:01:10;21.70;;;9.48;;
36923;SDS011;22841;50.252;18.688;2022-12-29T08:03:36;18.75;;;8.38;;
36923;SDS011;22841;50.252;18.688;2022-12-29T08:06:03;22.75;;;9.70;;
36923;SDS011;22841;50.252;18.688;2022-12-29T08:08:29;22.65;;;10.55;;
36923;SDS011;22841;50.252;18.688;2022-12-29T08:10:55;20.80;;;9.38;;
36923;SDS011;22841;50.252;18.688;2022-12-29T08:13:21;30.90;;;10.82;;
36923;SDS011;22841;50.252;18.688;2022-12-29T08:15:47;25.48;;;10.50;;
36923;SDS011;22841;50.252;18.688;2022-12-29T08:18:13;19.90;;;8.57;;
36923;SDS011;22841;50.252;18.688;2022-12-29T08:20:39;24.60;;;9.88;;
36923;SDS011;22841;50.252;18.688;2022-12-29T08:23:06;24.88;;;9.73;;
36923;SDS011;22841;50.252;18.688;2022-12-29T08:25:32;20.67;;;9.18;;
36923;SDS011;22841;50.252;18.688;2022-12-29T08:27:58;19.58;;;9.25;;
36923;SDS011;22841;50.252;18.688;2022-12-29T08:30:24;24.05;;;9.32;;
36923;SDS011;22841;50.252;18.688;2022-12-29T08:32:51;24.17;;;9.60;;
36923;SDS011;22841;50.252;18.688;2022-12-29T08:35:17;25.50;;;9.00;;
36923;SDS011;22841;50.252;18.688;2022-12-29T08:37:43;21.25;;;9.15;;
36923;SDS011;22841;50.252;18.688;2022-12-29T08:40:10;17.48;;;10.27;;
36923;SDS011;22841;50.252;18.688;2022-12-29T08:42:36;25.50;;;10.77;;
36923;SDS011;22841;50.252;18.688;2022-12-29T08:45:02;27.55;;;12.02;;
36923;SDS011;22841;50.252;18.688;2022-12-29T08:47:29;25.17;;;11.38;;
36923;SDS011;22841;50.252;18.688;2022-12-29T08:49:55;27.23;;;10.35;;
36923;SDS011;22841;50.252;18.688;2022-12-29T08:52:21;26.85;;;11.18;;
36923;SDS011;22841;50.252;18.688;2022-12-29T08:54:47;27.55;;;11.07;;
36923;SDS011;22841;50.252;18.688;2022-12-29T08:57:13;23.73;;;10.52;;
36923;SDS011;22841;50.252;18.688;2022-12-29T08:59:39;23.00;;;10.85;;
36923;SDS011;22841;50.252;18.688;2022-12-29T09:02:05;22.45;;;10.38;;
36923;SDS011;22841;50.252;18.688;2022-12-29T09:04:31;25.25;;;10.25;;
36923;SDS011;22841;50.252;18.688;2022-12-29T09:06:57;21.70;;;10.88;;
36923;SDS011;22841;50.252;18.688;2022-12-29T09:09:23;22.00;;;10.95;;
36923;SDS011;22841;50.252;18.688;2022-12-29T09:11:49;25.95;;;10.98;;
36923;SDS011;22841;50.252;18.688;2022-12-29T09:14:15;18.63;;;9.73;;
36923;SDS011;22841;50.252;18.688;2022-12-29T09:16:42;23.55;;;11.50;;
36923;SDS011;22841;50.252;18.688;2022-12-29T09:19:26;25.25;;;11.70;;
36923;SDS011;22841;50.252;18.688;2022-12-29T09:21:52;23.35;;;10.88;;
36923;SDS011;22841;50.252;18.688;2022-12-29T09:24:18;21.50;;;10.00;;
36923;SDS011;22841;50.252;18.688;2022-12-29T09:26:44;21.02;;;10.93;;
36923;SDS011;22841;50.252;18.688;2022-12-29T09:29:10;18.65;;;9.10;;
36923;SDS011;22841;50.252;18.688;2022-12-29T09:31:37;19.98;;;9.55;;
36923;SDS011;22841;50.252;18.688;2022-12-29T09:34:03;20.25;;;9.80;;
36923;SDS011;22841;50.252;18.688;2022-12-29T09:36:29;26.38;;;11.02;;
36923;SDS011;22841;50.252;18.688;2022-12-29T09:38:55;15.18;;;9.18;;
36923;SDS011;22841;50.252;18.688;2022-12-29T09:41:34;21.52;;;9.43;;
36923;SDS011;22841;50.252;18.688;2022-12-29T09:46:47;20.10;;;9.55;;
36923;SDS011;22841;50.252;18.688;2022-12-29T09:51:50;19.40;;;10.10;;
36923;SDS011;22841;50.252;18.688;2022-12-29T09:57:13;18.13;;;9.52;;
36923;SDS011;22841;50.252;18.688;2022-12-29T09:59:47;20.23;;;9.80;;
36923;SDS011;22841;50.252;18.688;2022-12-29T10:04:43;24.77;;;11.23;;
36923;SDS011;22841;50.252;18.688;2022-12-29T10:07:33;20.77;;;10.38;;
36923;SDS011;22841;50.252;18.688;2022-12-29T10:10:01;28.58;;;11.55;;
36923;SDS011;22841;50.252;18.688;2022-12-29T10:13:10;28.80;;;11.32;;
36923;SDS011;22841;50.252;18.688;2022-12-29T10:16:00;27.45;;;12.05;;
36923;SDS011;22841;50.252;18.688;2022-12-29T10:21:56;22.13;;;10.23;;
36923;SDS011;22841;50.252;18.688;2022-12-29T10:24:19;22.77;;;10.30;;
36923;SDS011;22841;50.252;18.688;2022-12-29T10:26:47;21.15;;;9.82;;
36923;SDS011;22841;50.252;18.688;2022-12-29T10:29:20;26.50;;;11.15;;
36923;SDS011;22841;50.252;18.688;2022-12-29T10:34:48;22.15;;;10.15;;
36923;SDS011;22841;50.252;18.688;2022-12-29T10:37:21;18.23;;;8.98;;
36923;SDS011;22841;50.252;18.688;2022-12-29T10:40:17;22.02;;;9.45;;
36923;SDS011;22841;50.252;18.688;2022-12-29T10:42:54;20.25;;;9.73;;
36923;SDS011;22841;50.252;18.688;2022-12-29T10:45:23;22.00;;;9.38;;
36923;SDS011;22841;50.252;18.688;2022-12-29T10:50:34;22.17;;;9.40;;
36923;SDS011;22841;50.252;18.688;2022-12-29T10:53:02;23.83;;;10.73;;
36923;SDS011;22841;50.252;18.688;2022-12-29T10:55:32;27.02;;;11.05;;
36923;SDS011;22841;50.252;18.688;2022-12-29T10:58:02;19.67;;;9.57;;
36923;SDS011;22841;50.252;18.688;2022-12-29T11:00:31;18.58;;;9.90;;
36923;SDS011;22841;50.252;18.688;2022-12-29T11:06:12;20.73;;;9.40;;
36923;SDS011;22841;50.252;18.688;2022-12-29T11:09:31;23.45;;;9.95;;
36923;SDS011;22841;50.252;18.688;2022-12-29T11:11:58;21.27;;;9.52;;
36923;SDS011;22841;50.252;18.688;2022-12-29T11:14:43;19.38;;;9.68;;
36923;SDS011;22841;50.252;18.688;2022-12-29T11:17:19;18.35;;;9.07;;
36923;SDS011;22841;50.252;18.688;2022-12-29T11:19:54;28.58;;;10.40;;
36923;SDS011;22841;50.252;18.688;2022-12-29T11:22:24;23.02;;;11.25;;
36923;SDS011;22841;50.252;18.688;2022-12-29T11:24:54;28.27;;;16.00;;
36923;SDS011;22841;50.252;18.688;2022-12-29T11:27:30;20.35;;;10.45;;
36923;SDS011;22841;50.252;18.688;2022-12-29T11:29:58;20.73;;;9.68;;
36923;SDS011;22841;50.252;18.688;2022-12-29T11:32:25;24.13;;;10.88;;
36923;SDS011;22841;50.252;18.688;2022-12-29T11:34:53;23.92;;;12.65;;
36923;SDS011;22841;50.252;18.688;2022-12-29T11:37:22;19.45;;;10.07;;
36923;SDS011;22841;50.252;18.688;2022-12-29T11:45:22;25.42;;;10.73;;
36923;SDS011;22841;50.252;18.688;2022-12-29T11:47:50;23.80;;;11.18;;
36923;SDS011;22841;50.252;18.688;2022-12-29T11:50:24;22.65;;;10.13;;
36923;SDS011;22841;50.252;18.688;2022-12-29T11:53:03;21.33;;;10.43;;
36923;SDS011;22841;50.252;18.688;2022-12-29T11:55:56;23.65;;;9.50;;
36923;SDS011;22841;50.252;18.688;2022-12-29T11:58:37;18.85;;;8.55;;
36923;SDS011;22841;50.252;18.688;2022-12-29T12:01:10;19.38;;;9.07;;
36923;SDS011;22841;50.252;18.688;2022-12-29T12:03:45;20.50;;;9.50;;
36923;SDS011;22841;50.252;18.688;2022-12-29T12:06:22;20.88;;;9.40;;
36923;SDS011;22841;50.252;18.688;2022-12-29T12:11:48;19.60;;;10.05;;
36923;SDS011;22841;50.252;18.688;2022-12-29T12:17:04;18.42;;;9.27;;
36923;SDS011;22841;50.252;18.688;2022-12-29T12:19:36;14.85;;;7.72;;
36923;SDS011;22841;50.252;18.688;2022-12-29T12:22:13;17.90;;;8.40;;
36923;SDS011;22841;50.252;18.688;2022-12-29T12:24:48;17.92;;;8.75;;
36923;SDS011;22841;50.252;18.688;2022-12-29T12:27:20;20.27;;;8.90;;
36923;SDS011;22841;50.252;18.688;2022-12-29T12:30:11;15.05;;;7.38;;
36923;SDS011;22841;50.252;18.688;2022-12-29T12:35:23;17.38;;;8.88;;
36923;SDS011;22841;50.252;18.688;2022-12-29T12:38:01;18.17;;;9.32;;
36923;SDS011;22841;50.252;18.688;2022-12-29T12:40:55;20.70;;;8.38;;
36923;SDS011;22841;50.252;18.688;2022-12-29T12:46:19;17.45;;;8.50;;
36923;SDS011;22841;50.252;18.688;2022-12-29T12:49:19;17.30;;;9.15;;
36923;SDS011;22841;50.252;18.688;2022-12-29T13:01:13;21.70;;;9.88;;
36923;SDS011;22841;50.252;18.688;2022-12-29T13:10:19;14.75;;;7.35;;
36923;SDS011;22841;50.252;18.688;2022-12-29T13:18:38;22.85;;;9.23;;
36923;SDS011;22841;50.252;18.688;2022-12-29T13:29:46;19.65;;;9.40;;
36923;SDS011;22841;50.252;18.688;2022-12-29T13:37:51;19.77;;;10.85;;
36923;SDS011;22841;50.252;18.688;2022-12-29T13:40:24;22.60;;;10.68;;
36923;SDS011;22841;50.252;18.688;2022-12-29T13:42:52;21.75;;;10.02;;
36923;SDS011;22841;50.252;18.688;2022-12-29T13:45:20;19.58;;;10.80;;
36923;SDS011;22841;50.252;18.688;2022-12-29T13:47:57;22.15;;;9.85;;
36923;SDS011;22841;50.252;18.688;2022-12-29T13:50:53;24.75;;;11.23;;
36923;SDS011;22841;50.252;18.688;2022-12-29T13:55:53;22.02;;;10.40;;
36923;SDS011;22841;50.252;18.688;2022-12-29T13:58:34;17.42;;;10.27;;
36923;SDS011;22841;50.252;18.688;2022-12-29T14:01:08;18.92;;;10.45;;
36923;SDS011;22841;50.252;18.688;2022-12-29T14:03:54;19.67;;;10.00;;
36923;SDS011;22841;50.252;18.688;2022-12-29T14:11:37;23.88;;;10.35;;
36923;SDS011;22841;50.252;18.688;2022-12-29T14:14:10;21.10;;;11.60;;
36923;SDS011;22841;50.252;18.688;2022-12-29T14:16:48;22.10;;;11.13;;
36923;SDS011;22841;50.252;18.688;2022-12-29T14:19:15;24.05;;;11.20;;
36923;SDS011;22841;50.252;18.688;2022-12-29T14:22:06;26.10;;;12.02;;
36923;SDS011;22841;50.252;18.688;2022-12-29T14:34:49;26.95;;;12.75;;
36923;SDS011;22841;50.252;18.688;2022-12-29T14:42:45;27.58;;;13.52;;
36923;SDS011;22841;50.252;18.688;2022-12-29T14:47:39;30.90;;;12.88;;
36923;SDS011;22841;50.252;18.688;2022-12-29T14:52:55;30.70;;;14.43;;
36923;SDS011;22841;50.252;18.688;2022-12-29T15:03:23;36.30;;;15.60;;
36923;SDS011;22841;50.252;18.688;2022-12-29T15:05:59;29.63;;;14.82;;
36923;SDS011;22841;50.252;18.688;2022-12-29T15:08:33;33.25;;;14.65;;
36923;SDS011;22841;50.252;18.688;2022-12-29T15:11:10;46.90;;;20.30;;
36923;SDS011;22841;50.252;18.688;2022-12-29T15:13:43;30.38;;;14.73;;
36923;SDS011;22841;50.252;18.688;2022-12-29T15:18:59;30.60;;;13.20;;
36923;SDS011;22841;50.252;18.688;2022-12-29T15:21:26;29.55;;;13.27;;
36923;SDS011;22841;50.252;18.688;2022-12-29T15:23:56;28.38;;;14.00;;
36923;SDS011;22841;50.252;18.688;2022-12-29T15:26:23;24.90;;;12.73;;
36923;SDS011;22841;50.252;18.688;2022-12-29T15:29:03;29.52;;;14.57;;
36923;SDS011;22841;50.252;18.688;2022-12-29T15:31:29;30.58;;;15.30;;
36923;SDS011;22841;50.252;18.688;2022-12-29T15:34:10;34.60;;;15.13;;
36923;SDS011;22841;50.252;18.688;2022-12-29T15:36:38;29.83;;;14.23;;
36923;SDS011;22841;50.252;18.688;2022-12-29T15:39:18;29.92;;;13.75;;
36923;SDS011;22841;50.252;18.688;2022-12-29T15:44:43;28.92;;;14.82;;
36923;SDS011;22841;50.252;18.688;2022-12-29T15:49:43;31.55;;;14.40;;
36923;SDS011;22841;50.252;18.688;2022-12-29T15:52:13;30.58;;;13.77;;
36923;SDS011;22841;50.252;18.688;2022-12-29T15:54:44;29.57;;;14.70;;
36923;SDS011;22841;50.252;18.688;2022-12-29T15:57:56;29.73;;;13.57;;
36923;SDS011;22841;50.252;18.688;2022-12-29T16:00:23;28.63;;;15.25;;
36923;SDS011;22841;50.252;18.688;2022-12-29T16:02:58;32.90;;;15.38;;
36923;SDS011;22841;50.252;18.688;2022-12-29T16:05:33;33.53;;;17.27;;
36923;SDS011;22841;50.252;18.688;2022-12-29T16:08:01;38.55;;;18.00;;
36923;SDS011;22841;50.252;18.688;2022-12-29T16:13:02;39.40;;;20.77;;
36923;SDS011;22841;50.252;18.688;2022-12-29T16:15:45;37.20;;;19.77;;
36923;SDS011;22841;50.252;18.688;2022-12-29T16:18:32;34.63;;;18.38;;
36923;SDS011;22841;50.252;18.688;2022-12-29T16:21:02;35.35;;;17.73;;
36923;SDS011;22841;50.252;18.688;2022-12-29T16:23:30;34.75;;;16.17;;
36923;SDS011;22841;50.252;18.688;2022-12-29T16:25:58;31.13;;;15.18;;
36923;SDS011;22841;50.252;18.688;2022-12-29T16:28:34;35.95;;;16.00;;
36923;SDS011;22841;50.252;18.688;2022-12-29T16:31:05;36.80;;;17.08;;
36923;SDS011;22841;50.252;18.688;2022-12-29T16:33:45;33.10;;;14.73;;
36923;SDS011;22841;50.252;18.688;2022-12-29T16:36:25;26.77;;;14.57;;
36923;SDS011;22841;50.252;18.688;2022-12-29T16:39:11;34.03;;;14.57;;
36923;SDS011;22841;50.252;18.688;2022-12-29T16:41:52;32.00;;;15.05;;
36923;SDS011;22841;50.252;18.688;2022-12-29T16:44:26;33.80;;;15.27;;
36923;SDS011;22841;50.252;18.688;2022-12-29T16:49:30;27.95;;;14.15;;
36923;SDS011;22841;50.252;18.688;2022-12-29T16:51:58;31.50;;;16.15;;
36923;SDS011;22841;50.252;18.688;2022-12-29T16:54:25;36.20;;;15.77;;
36923;SDS011;22841;50.252;18.688;2022-12-29T16:56:57;34.40;;;14.52;;
36923;SDS011;22841;50.252;18.688;2022-12-29T16:59:27;28.33;;;13.65;;
36923;SDS011;22841;50.252;18.688;2022-12-29T17:01:56;29.10;;;12.73;;
36923;SDS011;22841;50.252;18.688;2022-12-29T17:04:24;24.38;;;12.68;;
36923;SDS011;22841;50.252;18.688;2022-12-29T17:06:50;30.60;;;13.77;;
36923;SDS011;22841;50.252;18.688;2022-12-29T17:09:20;24.92;;;12.20;;
36923;SDS011;22841;50.252;18.688;2022-12-29T17:11:48;25.15;;;12.55;;
36923;SDS011;22841;50.252;18.688;2022-12-29T17:16:45;26.10;;;13.60;;
36923;SDS011;22841;50.252;18.688;2022-12-29T17:19:15;33.50;;;15.02;;
36923;SDS011;22841;50.252;18.688;2022-12-29T17:21:43;28.58;;;13.20;;
36923;SDS011;22841;50.252;18.688;2022-12-29T17:24:13;25.75;;;12.10;;
36923;SDS011;22841;50.252;18.688;2022-12-29T17:26:42;28.70;;;13.48;;
36923;SDS011;22841;50.252;18.688;2022-12-29T17:29:15;30.20;;;13.90;;
36923;SDS011;22841;50.252;18.688;2022-12-29T17:32:04;26.10;;;12.18;;
36923;SDS011;22841;50.252;18.688;2022-12-29T17:34:34;28.77;;;11.67;;